Latest Weather Observations for Mount Boyce

IDN60801

Issued at 4:33 pm EST Friday 26 August 2016 (issued every 30 minutes, with the page automatically refreshed every 10 minutes)

About weather observations | Map of weather stations | Latest weather observations for NSW | Other Formats
Station Details ID: 063292 Name: MOUNT BOYCE AWS Lat: -33.62 Lon: 150.27 Height: 1080.0 m
Data from the previous 72 hours. | See also: Recent months at Mount Boyce
Date/Time
EST
Temp
°C
App
Temp
°C
Dew
Point
°C
Rel
Hum
%
Delta-T
°C
Wind Press
QNH
hPa
Press
MSL
hPa
Rain since
9am
mm
Dir  Spd
km/h
Gust
km/h
Spd
kts
Gust
kts
26/04:30pm 8.7 5.8 -0.9 51 4.0 SE 4 9 2 5 - - 0.0
26/04:00pm 7.6 4.7 -1.4 53 3.7 SE 4 11 2 6 - - 0.0
26/03:30pm 8.2 4.6 -1.9 49 4.1 SE 7 15 4 8 - - 0.0
26/03:00pm 9.4 5.5 -1.3 47 4.4 SE 9 15 5 8 - - 0.0
26/02:30pm 10.1 6.7 -0.7 47 4.6 WSW 7 13 4 7 - - 0.0
26/02:00pm 9.5 4.9 -1.2 47 4.5 SSW 13 20 7 11 - - 0.0
26/01:30pm 8.9 4.2 -1.8 47 4.4 SW 13 20 7 11 - - 0.0
26/01:00pm 8.2 3.5 -1.6 50 4.0 SW 13 17 7 9 - - 0.0
26/12:30pm 7.4 2.6 -2.9 48 4.0 SW 13 20 7 11 - - 0.0
26/12:00pm 6.6 2.2 -2.3 53 3.5 SSW 11 19 6 10 - - 0.0
26/11:30am 6.7 2.8 -1.7 55 3.4 WSW 9 19 5 10 - - 0.0
26/11:00am 6.2 2.3 -1.2 59 3.0 SW 9 15 5 8 - - 0.0
26/10:30am 4.8 -0.4 -3.0 57 3.0 SW 15 28 8 15 - - 0.0
26/10:00am 4.1 -1.1 -2.5 62 2.5 SW 15 20 8 11 - - 0.0
26/09:30am 3.4 -1.3 -1.7 69 2.0 SW 13 20 7 11 - - 0.0
26/09:00am 2.2 -2.9 -2.3 72 1.7 SW 15 24 8 13 - - 0.0
26/08:30am 1.6 -3.2 -2.2 76 1.4 SW 13 19 7 10 - - 0.0
26/08:00am 1.0 -4.1 -2.2 79 1.2 SW 15 20 8 11 - - 0.0
26/07:30am 0.2 -4.9 -1.7 87 0.7 SW 15 24 8 13 - - 0.0
26/07:00am -0.7 -5.7 -1.4 95 0.2 WSW 15 19 8 10 - - 0.0
26/06:30am -0.6 -5.6 -1.4 94 0.3 WSW 15 19 8 10 - - 0.0
26/06:00am -0.5 -5.2 -1.5 93 0.3 WSW 13 19 7 10 - - 0.0
26/05:57am -0.5 -5.5 -1.5 93 0.3 WSW 15 19 8 10 - - 0.0
26/05:30am -0.1 -5.1 -0.9 94 0.3 WSW 15 19 8 10 - - 0.0
26/05:26am -0.2 -5.2 -1.0 94 0.3 WSW 15 19 8 10 - - 0.0
26/05:00am -0.3 -5.3 -1.1 94 0.3 WSW 15 20 8 11 - - 0.0
26/04:30am -0.3 -4.9 -1.3 93 0.4 WSW 13 19 7 10 - - 0.0
26/04:00am -0.2 -5.6 -1.3 92 0.4 WSW 17 24 9 13 - - 0.0
26/03:30am -0.3 -5.3 -1.3 93 0.4 W 15 20 8 11 - - 0.0
26/03:00am -0.1 -5.5 -1.2 92 0.4 WSW 17 24 9 13 - - 0.0
26/02:30am 0.0 -5.4 -1.1 92 0.4 WSW 17 24 9 13 - - 0.0
26/02:00am 0.2 -5.6 -1.2 90 0.5 WSW 19 26 10 14 - - 0.0
26/01:30am 0.3 -5.4 -1.1 90 0.5 WSW 19 26 10 14 - - 0.0
26/01:00am 0.3 -5.6 -1.1 90 0.5 WSW 20 26 11 14 - - 0.0
26/12:30am 0.2 -5.5 -0.8 93 0.4 WSW 19 28 10 15 - - 0.0
26/12:00am 0.6 -4.7 -0.7 91 0.5 W 17 24 9 13 - - 0.0
 
Date/Time
EST
Temp
°C
App
Temp
°C
Dew
Point
°C
Rel
Hum
%
Delta-T
°C
Wind Press
QNH
hPa
Press
MSL
hPa
Rain since
9am
mm
Dir  Spd
km/h
Gust
km/h
Spd
kts
Gust
kts
25/11:30pm 0.4 -5.3 -1.0 90 0.6 WSW 19 30 10 16 - - 0.0
25/11:00pm 0.4 -5.3 -1.0 90 0.6 WSW 19 26 10 14 - - 0.0
25/10:30pm 0.6 -4.4 -1.2 88 0.7 W 15 24 8 13 - - 0.0
25/10:00pm 0.8 -4.2 -1.1 87 0.7 WSW 15 22 8 12 - - 0.0
25/09:30pm 1.2 -5.5 -1.0 85 0.8 WSW 24 30 13 16 - - 0.0
25/09:00pm 1.5 -3.8 -0.9 84 0.9 WSW 17 28 9 15 - - 0.0
25/08:30pm 1.9 -3.5 -1.0 81 1.1 WSW 17 32 9 17 - - 0.0
25/08:00pm 2.9 -4.5 -0.4 79 1.3 WSW 28 43 15 23 - - 0.0
25/07:59pm 2.8 -4.6 -0.6 78 1.3 WSW 28 43 15 23 - - 0.0
25/07:43pm 3.1 -3.3 0.7 84 1.0 WSW 24 35 13 19 - - 0.0
25/07:30pm 3.3 -2.4 0.4 81 1.2 WSW 20 32 11 17 - - 0.0
25/07:00pm 3.3 -2.3 0.0 79 1.3 WSW 19 32 10 17 - - 0.0
25/06:30pm 4.0 -2.1 0.3 77 1.5 W 22 30 12 16 - - 0.0
25/06:00pm 4.5 -1.5 0.8 77 1.5 W 22 33 12 18 - - 0.0
25/05:30pm 4.8 -0.8 1.1 77 1.6 W 20 33 11 18 - - 0.0
25/05:00pm 5.1 0.7 0.5 72 1.9 WSW 13 24 7 13 - - 0.0
25/04:30pm 5.2 0.0 0.2 70 2.1 WSW 17 24 9 13 - - 0.0
25/04:00pm 5.4 -0.1 0.4 70 2.1 WSW 19 30 10 16 - - 0.0
25/03:30pm 5.3 -1.2 0.1 69 2.1 WSW 24 33 13 18 - - 0.0
25/03:00pm 7.4 0.7 1.5 66 2.6 WSW 26 39 14 21 - - 0.0
25/02:30pm 7.8 1.5 1.4 64 2.8 WSW 24 35 13 19 - - 0.0
25/02:00pm 7.2 -0.8 0.4 62 2.9 WSW 32 44 17 24 - - 0.0
25/01:30pm 6.9 0.5 1.2 67 2.4 W 24 39 13 21 - - 0.0
25/01:00pm 6.7 0.0 1.2 68 2.4 W 26 37 14 20 - - 0.0
25/12:30pm 5.9 -0.1 1.1 71 2.0 WSW 22 35 12 19 - - 0.0
25/12:00pm 5.6 -0.3 1.9 77 1.6 W 22 32 12 17 - - 0.0
25/11:30am 5.8 -0.4 2.4 79 1.5 WSW 24 37 13 20 - - 0.0
25/11:00am 6.5 0.2 3.5 81 1.4 WSW 26 37 14 20 - - 0.0
25/10:40am 4.9 -0.2 3.2 89 0.8 WSW 19 28 10 15 - - 0.0
25/10:30am 4.9 -0.1 3.4 90 0.7 WSW 19 26 10 14 - - 0.0
25/10:00am 4.2 -0.4 3.9 98 0.1 WSW 17 24 9 13 - - 0.0
25/09:45am 3.9 -0.3 3.6 98 0.1 W 15 19 8 10 - - 0.0
25/09:36am 3.6 -0.7 3.3 98 0.1 W 15 20 8 11 - - 0.0
25/09:30am 3.7 -0.6 3.4 98 0.1 W 15 19 8 10 - - 0.0
25/09:06am 2.2 -2.0 1.9 98 0.1 W 13 20 7 11 - - 0.0
25/09:00am 2.1 -2.5 1.8 98 0.1 W 15 20 8 11 - - 32.6
25/08:30am 2.6 -1.5 2.3 98 0.1 W 13 19 7 10 - - 32.6
25/08:00am 2.0 -2.6 1.7 98 0.1 WSW 15 20 8 11 - - 32.6
25/07:30am 1.7 -2.9 1.4 98 0.1 W 15 24 8 13 - - 32.6
25/07:00am 1.5 -3.2 1.2 98 0.1 WSW 15 20 8 11 - - 32.6
25/06:30am 1.5 -3.2 1.2 98 0.1 WSW 15 19 8 10 - - 32.4
25/06:00am 1.5 -3.2 1.2 98 0.1 WSW 15 20 8 11 - - 32.4
25/05:30am 1.5 -3.9 1.2 98 0.1 SW 19 28 10 15 - - 32.4
25/05:00am 1.4 -4.0 1.1 98 0.1 SW 19 30 10 16 - - 32.4
25/04:30am 1.4 -4.0 1.1 98 0.1 SW 19 35 10 19 - - 32.4
25/04:00am 1.4 -4.2 1.1 98 0.1 WSW 20 30 11 16 - - 32.2
25/03:30am 1.5 -3.9 1.2 98 0.1 SW 19 26 10 14 - - 32.0
25/03:00am 1.6 -3.4 1.3 98 0.1 WSW 17 28 9 15 - - 31.8
25/02:30am 1.5 -3.9 1.2 98 0.1 SW 19 30 10 16 - - 31.6
25/02:00am 1.7 -3.3 1.4 98 0.1 WSW 17 26 9 14 - - 31.6
25/01:30am 1.6 -3.4 1.3 98 0.1 SW 17 30 9 16 - - 31.4
25/01:00am 1.8 -3.2 1.5 98 0.1 SW 17 22 9 12 - - 31.2
25/12:30am 1.9 -2.7 1.6 98 0.1 SW 15 22 8 12 - - 31.2
25/12:00am 1.9 -2.7 1.6 98 0.1 SW 15 20 8 11 - - 31.2
 
Date/Time
EST
Temp
°C
App
Temp
°C
Dew
Point
°C
Rel
Hum
%
Delta-T
°C
Wind Press
QNH
hPa
Press
MSL
hPa
Rain since
9am
mm
Dir  Spd
km/h
Gust
km/h
Spd
kts
Gust
kts
24/11:30pm 1.9 -2.7 1.6 98 0.1 SW 15 24 8 13 - - 31.2
24/11:00pm 1.9 -2.3 1.6 98 0.1 SSW 13 19 7 10 - - 30.6
24/10:30pm 1.9 -3.1 1.6 98 0.1 SW 17 22 9 12 - - 30.4
24/10:00pm 1.9 -2.7 1.6 98 0.1 SW 15 24 8 13 - - 30.2
24/09:30pm 1.9 -3.1 1.6 98 0.1 SW 17 24 9 13 - - 29.6
24/09:00pm 1.8 -3.2 1.5 98 0.1 SW 17 26 9 14 - - 29.0
24/08:30pm 2.0 -3.5 1.7 98 0.1 SW 20 35 11 19 - - 28.4
24/08:00pm 2.6 -3.6 2.3 98 0.1 SW 24 35 13 19 - - 27.6
24/07:51pm 2.7 -4.2 2.4 98 0.1 SW 28 43 15 23 - - 27.4
24/07:31pm 3.2 -2.1 2.9 98 0.1 SW 20 37 11 20 - - 27.2
24/07:30pm 3.2 -2.1 2.9 98 0.1 SW 20 37 11 20 - - 27.0
24/07:00pm 4.0 -0.6 3.7 98 0.1 SW 17 28 9 15 - - 26.0
24/06:30pm 4.4 0.3 4.1 98 0.1 SW 15 28 8 15 - - 23.6
24/06:00pm 5.1 1.1 4.8 98 0.1 SW 15 24 8 13 - - 21.0
24/05:30pm 5.6 2.8 5.3 98 0.1 SW 9 19 5 10 - - 14.2
24/05:00pm 5.9 4.5 5.6 98 0.1 ESE 2 13 1 7 - - 12.2
24/04:30pm 6.1 4.0 5.8 98 0.1 ESE 6 13 3 7 - - 10.6
24/04:00pm 6.2 3.9 5.9 98 0.1 ESE 7 17 4 9 - - 8.4
24/03:30pm 6.3 4.1 6.0 98 0.1 ENE 7 20 4 11 - - 7.0
24/03:00pm 6.3 3.7 6.0 98 0.1 E 9 19 5 10 - - 6.2
24/02:30pm 6.7 4.2 6.6 99 0.0 E 9 24 5 13 - - 6.0
24/02:00pm 6.6 4.0 6.3 98 0.1 E 9 20 5 11 - - 6.0
24/01:30pm 6.7 4.2 6.6 99 0.0 E 9 20 5 11 - - 5.8
24/01:00pm 6.4 4.4 6.1 98 0.1 E 6 13 3 7 - - 4.4
24/12:30pm 6.2 3.9 5.9 98 0.1 E 7 19 4 10 - - 4.0
24/12:00pm 6.0 3.7 5.7 98 0.1 E 7 17 4 9 - - 3.4
24/11:30am 6.2 3.6 6.1 99 0.0 E 9 19 5 10 - - 2.8
24/11:00am 6.2 3.6 5.9 98 0.1 E 9 20 5 11 - - 2.2
24/10:30am 5.8 3.1 5.7 99 0.0 E 9 19 5 10 - - 1.4
24/10:00am 6.2 4.0 6.1 99 0.0 E 7 13 4 7 - - 1.2
24/09:30am 5.5 2.7 5.2 98 0.1 E 9 17 5 9 - - 0.6
24/09:00am 5.4 2.6 5.1 98 0.1 E 9 20 5 11 - - 4.6
24/08:30am 5.3 2.5 5.0 98 0.1 E 9 17 5 9 - - 3.6
24/08:00am 5.1 2.2 4.8 98 0.1 E 9 20 5 11 - - 3.0
24/07:30am 4.9 1.6 4.6 98 0.1 E 11 22 6 12 - - 2.4
24/07:00am 4.9 2.4 4.6 98 0.1 E 7 17 4 9 - - 1.8
24/06:30am 4.8 2.4 4.5 98 0.1 E 6 17 3 9 - - 1.4
24/06:00am 4.8 2.4 4.5 98 0.1 E 6 13 3 7 - - 1.0
24/05:30am 4.7 1.8 4.4 98 0.1 E 9 20 5 11 - - 0.8
24/05:00am 4.6 2.0 4.3 98 0.1 E 7 17 4 9 - - 0.6
24/04:30am 4.7 2.1 4.4 98 0.1 E 7 19 4 10 - - 0.4
24/04:00am 4.8 2.3 4.5 98 0.1 E 7 15 4 8 - - 0.4
24/03:30am 4.7 2.1 4.4 98 0.1 E 7 17 4 9 - - 0.2
24/03:00am 4.7 2.3 4.4 98 0.1 E 6 15 3 8 - - 0.2
24/02:30am 4.8 2.3 4.5 98 0.1 E 7 13 4 7 - - 0.2
24/02:00am 4.8 2.3 4.5 98 0.1 E 7 13 4 7 - - 0.0
24/01:30am 4.7 2.1 4.4 98 0.1 E 7 15 4 8 - - 0.0
24/01:05am 4.7 2.3 4.3 97 0.2 E 6 13 3 7 - - 0.0
24/01:00am 4.6 2.0 4.2 97 0.2 E 7 17 4 9 - - 0.0
24/12:48am 4.5 1.9 4.1 97 0.2 E 7 19 4 10 - - 0.0
24/12:30am 4.4 1.9 4.0 97 0.2 E 6 11 3 6 - - 0.0
24/12:00am 4.6 2.2 4.2 97 0.2 E 6 15 3 8 - - 0.0
 
Date/Time
EST
Temp
°C
App
Temp
°C
Dew
Point
°C
Rel
Hum
%
Delta-T
°C
Wind Press
QNH
hPa
Press
MSL
hPa
Rain since
9am
mm
Dir  Spd
km/h
Gust
km/h
Spd
kts
Gust
kts
23/11:45pm 4.6 2.0 4.2 97 0.2 E 7 19 4 10 - - 0.0
23/11:30pm 4.5 1.8 3.9 96 0.3 E 7 15 4 8 - - 0.0
23/11:06pm 4.6 2.0 4.0 96 0.3 E 7 15 4 8 - - 0.0
23/11:00pm 4.6 2.0 4.0 96 0.3 E 7 15 4 8 - - 0.0
23/10:30pm 4.9 2.0 4.5 97 0.2 E 9 15 5 8 - - 0.0
23/10:00pm 5.1 2.8 4.7 97 0.2 ENE 6 13 3 7 - - 0.0
23/09:30pm 5.0 2.5 4.6 97 0.2 ENE 7 13 4 7 - - 0.0
23/09:04pm 5.0 2.1 4.4 96 0.3 ENE 9 17 5 9 - - 0.0
23/09:00pm 5.0 2.1 4.4 96 0.3 ENE 9 17 5 9 - - 0.0
23/08:30pm 5.1 1.4 4.4 95 0.3 ENE 13 19 7 10 - - 0.0
23/08:00pm 5.3 2.0 4.6 95 0.3 ENE 11 20 6 11 - - 0.0
23/07:30pm 5.5 2.6 4.6 94 0.4 ENE 9 20 5 11 - - 0.0
23/07:00pm 5.6 2.7 4.7 94 0.4 ENE 9 17 5 9 - - 0.0
23/06:30pm 5.4 2.5 4.5 94 0.4 ENE 9 15 5 8 - - 0.0
23/06:15pm 5.4 2.5 4.4 93 0.5 ENE 9 15 5 8 - - 0.0
23/06:00pm 5.4 2.8 4.2 92 0.5 ENE 7 13 4 7 - - 0.0
23/05:30pm 5.8 3.2 4.1 89 0.8 E 7 13 4 7 - - 0.0
23/05:00pm 6.4 4.0 4.2 86 1.0 E 6 9 3 5 - - 0.0

Other Formats:

Comma delimited format used in spreadsheet applications
http://www.bom.gov.au/fwo/IDN60801/IDN60801.94743.axf

JavaScript Object Notation format (JSON) in row-major order
http://www.bom.gov.au/fwo/IDN60801/IDN60801.94743.json